KIND/IND METAR and TAF weather

Enter ICAO airport designator
Station Type Date Time Source
KIND METAR 2024/04/18 06:54 UTC NOAA

KIND 180654Z 30006KT 10SM CLR 11/07 A3002 RMK AO2 SLP162 T01110072


Station Type Date Time Source
KIND Decoded METAR 2024/04/18 06:54 UTC NOAA

INDIANAPOLIS INTERNATIONAL AIRPORT , IN, United States (KIND) 39-43N 86-17W 242M
Apr 18, 2024 - 02:54 AM EDT / 2024.04.18 0654 UTC
Wind: from the WNW (300 degrees) at 7 MPH (6 KT):0
Visibility: 10 mile(s):0
Sky conditions: clear
Temperature: 52.0 F (11.1 C)
Dew Point: 45.0 F (7.2 C)
Relative Humidity: 76%
Pressure (altimeter): 30.02 in. Hg (1016 hPa)
ob: KIND 180654Z 30006KT 10SM CLR 11/07 A3002 RMK AO2 SLP162 T01110072
cycle: 7

Station Type Date Time Source
KIND TAF 2024/04/18 06:36 UTC NOAA